sensor_id;sensor_type;location;lat;lon;timestamp;pressure;altitude;pressure_sealevel;temperature;humidity
5062;BME280;2351;50.812;12.872;2024-02-16T00:00:46;97886.91;;;4.05;100.00
5062;BME280;2351;50.812;12.872;2024-02-16T00:03:18;97883.63;;;4.01;100.00
5062;BME280;2351;50.812;12.872;2024-02-16T00:05:50;97883.72;;;4.00;100.00
5062;BME280;2351;50.812;12.872;2024-02-16T00:08:22;97880.34;;;3.98;100.00
5062;BME280;2351;50.812;12.872;2024-02-16T00:10:53;97879.41;;;3.99;100.00
5062;BME280;2351;50.812;12.872;2024-02-16T00:13:27;97875.09;;;3.98;100.00
5062;BME280;2351;50.812;12.872;2024-02-16T00:15:59;97878.84;;;3.94;100.00
5062;BME280;2351;50.812;12.872;2024-02-16T00:18:31;97871.16;;;3.90;100.00
5062;BME280;2351;50.812;12.872;2024-02-16T00:21:03;97868.84;;;3.86;100.00
5062;BME280;2351;50.812;12.872;2024-02-16T00:23:35;97864.63;;;3.83;100.00
5062;BME280;2351;50.812;12.872;2024-02-16T00:26:07;97869.00;;;3.83;100.00
5062;BME280;2351;50.812;12.872;2024-02-16T00:28:40;97860.22;;;3.84;100.00
5062;BME280;2351;50.812;12.872;2024-02-16T00:31:12;97861.16;;;3.83;100.00
5062;BME280;2351;50.812;12.872;2024-02-16T00:33:44;97860.34;;;3.82;100.00
5062;BME280;2351;50.812;12.872;2024-02-16T00:36:16;97857.97;;;3.77;100.00
5062;BME280;2351;50.812;12.872;2024-02-16T00:38:48;97854.59;;;3.75;100.00
5062;BME280;2351;50.812;12.872;2024-02-16T00:41:21;97859.19;;;3.72;100.00
5062;BME280;2351;50.812;12.872;2024-02-16T00:43:54;97855.97;;;3.67;100.00
5062;BME280;2351;50.812;12.872;2024-02-16T00:46:26;97852.81;;;3.61;100.00
5062;BME280;2351;50.812;12.872;2024-02-16T00:48:58;97847.75;;;3.58;100.00
5062;BME280;2351;50.812;12.872;2024-02-16T00:51:30;97852.13;;;3.58;100.00
5062;BME280;2351;50.812;12.872;2024-02-16T00:54:02;97843.34;;;3.59;100.00
5062;BME280;2351;50.812;12.872;2024-02-16T00:56:35;97846.06;;;3.57;100.00
5062;BME280;2351;50.812;12.872;2024-02-16T00:59:08;97841.66;;;3.58;100.00
5062;BME280;2351;50.812;12.872;2024-02-16T01:01:40;97844.28;;;3.58;100.00
5062;BME280;2351;50.812;12.872;2024-02-16T01:04:12;97847.84;;;3.57;100.00
5062;BME280;2351;50.812;12.872;2024-02-16T01:06:44;97842.13;;;3.50;100.00
5062;BME280;2351;50.812;12.872;2024-02-16T01:09:16;97837.19;;;3.45;100.00
5062;BME280;2351;50.812;12.872;2024-02-16T01:11:48;97828.56;;;3.43;100.00
5062;BME280;2351;50.812;12.872;2024-02-16T01:14:21;97832.94;;;3.43;100.00
5062;BME280;2351;50.812;12.872;2024-02-16T01:16:53;97818.28;;;3.40;100.00
5062;BME280;2351;50.812;12.872;2024-02-16T01:19:25;97826.06;;;3.42;100.00
5062;BME280;2351;50.812;12.872;2024-02-16T01:21:56;97821.75;;;3.41;100.00
5062;BME280;2351;50.812;12.872;2024-02-16T01:24:29;97827.72;;;3.43;100.00
5062;BME280;2351;50.812;12.872;2024-02-16T01:27:01;97816.25;;;3.45;100.00
5062;BME280;2351;50.812;12.872;2024-02-16T01:29:34;97815.31;;;3.46;100.00
5062;BME280;2351;50.812;12.872;2024-02-16T01:32:06;97820.72;;;3.43;100.00
5062;BME280;2351;50.812;12.872;2024-02-16T01:34:38;97823.50;;;3.40;100.00
5062;BME280;2351;50.812;12.872;2024-02-16T01:37:10;97821.00;;;3.39;100.00
5062;BME280;2351;50.812;12.872;2024-02-16T01:39:42;97822.75;;;3.38;100.00
5062;BME280;2351;50.812;12.872;2024-02-16T01:42:14;97820.06;;;3.40;100.00
5062;BME280;2351;50.812;12.872;2024-02-16T01:44:47;97822.59;;;3.41;100.00
5062;BME280;2351;50.812;12.872;2024-02-16T01:47:19;97809.50;;;3.41;100.00
5062;BME280;2351;50.812;12.872;2024-02-16T01:49:51;97813.81;;;3.42;100.00
5062;BME280;2351;50.812;12.872;2024-02-16T01:52:23;97818.94;;;3.44;100.00
5062;BME280;2351;50.812;12.872;2024-02-16T01:54:57;97818.28;;;3.40;100.00
5062;BME280;2351;50.812;12.872;2024-02-16T01:57:29;97815.75;;;3.39;100.00
5062;BME280;2351;50.812;12.872;2024-02-16T02:00:16;97816.59;;;3.39;100.00
5062;BME280;2351;50.812;12.872;2024-02-16T02:02:49;97819.03;;;3.42;100.00
5062;BME280;2351;50.812;12.872;2024-02-16T02:05:21;97815.66;;;3.40;100.00
5062;BME280;2351;50.812;12.872;2024-02-16T02:07:52;97814.09;;;3.38;100.00
5062;BME280;2351;50.812;12.872;2024-02-16T02:10:24;97817.44;;;3.40;100.00
5062;BME280;2351;50.812;12.872;2024-02-16T02:12:56;97816.53;;;3.41;100.00
5062;BME280;2351;50.812;12.872;2024-02-16T02:15:29;97816.31;;;3.44;100.00
5062;BME280;2351;50.812;12.872;2024-02-16T02:18:01;97809.31;;;3.44;100.00
5062;BME280;2351;50.812;12.872;2024-02-16T02:20:33;97807.47;;;3.46;100.00
5062;BME280;2351;50.812;12.872;2024-02-16T02:23:06;97811.59;;;3.51;100.00
5062;BME280;2351;50.812;12.872;2024-02-16T02:25:38;97801.00;;;3.52;100.00
5062;BME280;2351;50.812;12.872;2024-02-16T02:28:10;97803.44;;;3.55;100.00
5062;BME280;2351;50.812;12.872;2024-02-16T02:30:43;97802.53;;;3.56;100.00
5062;BME280;2351;50.812;12.872;2024-02-16T02:33:16;97809.25;;;3.60;100.00
5062;BME280;2351;50.812;12.872;2024-02-16T02:35:48;97798.03;;;3.58;100.00
5062;BME280;2351;50.812;12.872;2024-02-16T02:38:21;97800.47;;;3.61;100.00
5062;BME280;2351;50.812;12.872;2024-02-16T02:40:53;97797.75;;;3.63;100.00
5062;BME280;2351;50.812;12.872;2024-02-16T02:43:25;97799.25;;;3.67;100.00
5062;BME280;2351;50.812;12.872;2024-02-16T02:45:56;97796.34;;;3.72;100.00
5062;BME280;2351;50.812;12.872;2024-02-16T02:48:28;97795.34;;;3.74;100.00
5062;BME280;2351;50.812;12.872;2024-02-16T02:51:00;97792.81;;;3.73;100.00
5062;BME280;2351;50.812;12.872;2024-02-16T02:53:33;97789.44;;;3.71;100.00
5062;BME280;2351;50.812;12.872;2024-02-16T02:56:05;97796.72;;;3.66;100.00
5062;BME280;2351;50.812;12.872;2024-02-16T02:58:39;97798.50;;;3.65;100.00
5062;BME280;2351;50.812;12.872;2024-02-16T03:01:11;97792.63;;;3.61;100.00
5062;BME280;2351;50.812;12.872;2024-02-16T03:03:43;97796.94;;;3.63;100.00
5062;BME280;2351;50.812;12.872;2024-02-16T03:06:17;97795.88;;;3.65;100.00
5062;BME280;2351;50.812;12.872;2024-02-16T03:08:50;97795.88;;;3.65;100.00
5062;BME280;2351;50.812;12.872;2024-02-16T03:11:22;97801.94;;;3.66;100.00
5062;BME280;2351;50.812;12.872;2024-02-16T03:13:54;97803.84;;;3.64;100.00
5062;BME280;2351;50.812;12.872;2024-02-16T03:16:25;97797.84;;;3.61;100.00
5062;BME280;2351;50.812;12.872;2024-02-16T03:18:57;97801.31;;;3.62;100.00
5062;BME280;2351;50.812;12.872;2024-02-16T03:21:30;97798.69;;;3.62;100.00
5062;BME280;2351;50.812;12.872;2024-02-16T03:24:05;97803.75;;;3.65;100.00
5062;BME280;2351;50.812;12.872;2024-02-16T03:26:36;97793.44;;;3.62;100.00
5062;BME280;2351;50.812;12.872;2024-02-16T03:29:08;97797.84;;;3.61;100.00
5062;BME280;2351;50.812;12.872;2024-02-16T03:31:40;97803.63;;;3.67;100.00
5062;BME280;2351;50.812;12.872;2024-02-16T03:34:12;97815.44;;;3.74;100.00
5062;BME280;2351;50.812;12.872;2024-02-16T03:36:51;97800.47;;;3.76;100.00
5062;BME280;2351;50.812;12.872;2024-02-16T03:39:26;97806.47;;;3.78;100.00
5062;BME280;2351;50.812;12.872;2024-02-16T03:41:58;97802.91;;;3.79;100.00
5062;BME280;2351;50.812;12.872;2024-02-16T03:44:30;97801.03;;;3.81;100.00
5062;BME280;2351;50.812;12.872;2024-02-16T03:47:02;97792.31;;;3.81;100.00
5062;BME280;2351;50.812;12.872;2024-02-16T03:49:34;97792.16;;;3.84;100.00
5062;BME280;2351;50.812;12.872;2024-02-16T03:52:06;97789.16;;;3.90;100.00
5062;BME280;2351;50.812;12.872;2024-02-16T03:54:39;97787.28;;;3.92;100.00
5062;BME280;2351;50.812;12.872;2024-02-16T03:57:12;97789.06;;;3.91;100.00
5062;BME280;2351;50.812;12.872;2024-02-16T03:59:44;97781.19;;;3.91;100.00
5062;BME280;2351;50.812;12.872;2024-02-16T04:02:16;97778.50;;;3.93;100.00
5062;BME280;2351;50.812;12.872;2024-02-16T04:04:47;97785.50;;;3.92;100.00
5062;BME280;2351;50.812;12.872;2024-02-16T04:07:19;97790.75;;;3.92;100.00
5062;BME280;2351;50.812;12.872;2024-02-16T04:09:52;97793.47;;;3.91;100.00
5062;BME280;2351;50.812;12.872;2024-02-16T04:12:24;97790.75;;;3.92;100.00
5062;BME280;2351;50.812;12.872;2024-02-16T04:14:56;97790.75;;;3.92;100.00
5062;BME280;2351;50.812;12.872;2024-02-16T04:17:28;97798.03;;;4.02;100.00
5062;BME280;2351;50.812;12.872;2024-02-16T04:19:59;97799.25;;;4.11;100.00
5062;BME280;2351;50.812;12.872;2024-02-16T04:22:31;97798.94;;;4.15;100.00
5062;BME280;2351;50.812;12.872;2024-02-16T04:25:09;97797.28;;;4.14;100.00
5062;BME280;2351;50.812;12.872;2024-02-16T04:27:41;97802.69;;;4.11;100.00
5062;BME280;2351;50.812;12.872;2024-02-16T04:30:26;97803.84;;;4.07;100.00
5062;BME280;2351;50.812;12.872;2024-02-16T04:32:58;97796.94;;;4.06;100.00
5062;BME280;2351;50.812;12.872;2024-02-16T04:35:30;97789.06;;;4.06;100.00
5062;BME280;2351;50.812;12.872;2024-02-16T04:38:02;97794.09;;;4.09;100.00
5062;BME280;2351;50.812;12.872;2024-02-16T04:40:37;97786.16;;;4.11;100.00
5062;BME280;2351;50.812;12.872;2024-02-16T04:43:09;97779.97;;;4.12;100.00
5062;BME280;2351;50.812;12.872;2024-02-16T04:45:41;97772.94;;;4.12;100.00
5062;BME280;2351;50.812;12.872;2024-02-16T04:48:12;97785.97;;;4.14;100.00
5062;BME280;2351;50.812;12.872;2024-02-16T04:50:44;97797.28;;;4.14;100.00
5062;BME280;2351;50.812;12.872;2024-02-16T04:53:17;97790.28;;;4.15;100.00
5062;BME280;2351;50.812;12.872;2024-02-16T04:55:50;97790.78;;;4.20;100.00
5062;BME280;2351;50.812;12.872;2024-02-16T04:58:21;97786.41;;;4.20;100.00
5062;BME280;2351;50.812;12.872;2024-02-16T05:00:53;97784.34;;;4.26;100.00
5062;BME280;2351;50.812;12.872;2024-02-16T05:03:25;97782.06;;;4.34;100.00
5062;BME280;2351;50.812;12.872;2024-02-16T05:05:57;97781.50;;;4.43;100.00
5062;BME280;2351;50.812;12.872;2024-02-16T05:08:28;97780.91;;;4.52;100.00
5062;BME280;2351;50.812;12.872;2024-02-16T05:11:02;97774.34;;;4.60;100.00
5062;BME280;2351;50.812;12.872;2024-02-16T05:13:35;97774.03;;;4.64;100.00
5062;BME280;2351;50.812;12.872;2024-02-16T05:16:08;97786.00;;;4.68;100.00
5062;BME280;2351;50.812;12.872;2024-02-16T05:18:40;97780.88;;;4.67;100.00
5062;BME280;2351;50.812;12.872;2024-02-16T05:21:12;97772.06;;;4.68;100.00
5062;BME280;2351;50.812;12.872;2024-02-16T05:23:44;97765.78;;;4.71;100.00
5062;BME280;2351;50.812;12.872;2024-02-16T05:26:17;97764.00;;;4.71;100.00
5062;BME280;2351;50.812;12.872;2024-02-16T05:28:49;97762.13;;;4.73;100.00
5062;BME280;2351;50.812;12.872;2024-02-16T05:31:21;97758.16;;;4.80;100.00
5062;BME280;2351;50.812;12.872;2024-02-16T05:34:06;97753.44;;;4.86;100.00
5062;BME280;2351;50.812;12.872;2024-02-16T05:36:38;97753.06;;;4.92;100.00
5062;BME280;2351;50.812;12.872;2024-02-16T05:39:10;97758.09;;;4.95;100.00
5062;BME280;2351;50.812;12.872;2024-02-16T05:41:52;97755.25;;;4.98;100.00
5062;BME280;2351;50.812;12.872;2024-02-16T05:44:24;97754.31;;;4.99;100.00
5062;BME280;2351;50.812;12.872;2024-02-16T05:46:55;97753.09;;;5.05;100.00
5062;BME280;2351;50.812;12.872;2024-02-16T05:49:27;97751.91;;;5.09;100.00
5062;BME280;2351;50.812;12.872;2024-02-16T05:52:00;97757.28;;;5.07;100.00
5062;BME280;2351;50.812;12.872;2024-02-16T05:54:48;97775.22;;;5.01;100.00
5062;BME280;2351;50.812;12.872;2024-02-16T05:57:21;97778.03;;;4.97;100.00
5062;BME280;2351;50.812;12.872;2024-02-16T05:59:54;97778.16;;;4.96;100.00
5062;BME280;2351;50.812;12.872;2024-02-16T06:02:26;97784.41;;;4.93;100.00
5062;BME280;2351;50.812;12.872;2024-02-16T06:04:58;97783.88;;;4.88;100.00
5062;BME280;2351;50.812;12.872;2024-02-16T06:07:30;97783.22;;;4.85;100.00
5062;BME280;2351;50.812;12.872;2024-02-16T06:10:02;97800.09;;;4.80;100.00
5062;BME280;2351;50.812;12.872;2024-02-16T06:12:39;97788.97;;;4.77;100.00
5062;BME280;2351;50.812;12.872;2024-02-16T06:15:11;97786.56;;;4.74;100.00
5062;BME280;2351;50.812;12.872;2024-02-16T06:17:45;97792.66;;;4.74;100.00
5062;BME280;2351;50.812;12.872;2024-02-16T06:20:17;97799.34;;;4.78;100.00
5062;BME280;2351;50.812;12.872;2024-02-16T06:22:48;97795.41;;;4.86;100.00
5062;BME280;2351;50.812;12.872;2024-02-16T06:25:21;97802.16;;;4.90;100.00
5062;BME280;2351;50.812;12.872;2024-02-16T06:27:54;97806.03;;;4.97;100.00
5062;BME280;2351;50.812;12.872;2024-02-16T06:30:26;97807.44;;;5.03;100.00
5062;BME280;2351;50.812;12.872;2024-02-16T06:32:58;97808.81;;;5.08;100.00
5062;BME280;2351;50.812;12.872;2024-02-16T06:35:31;97800.53;;;5.15;100.00
5062;BME280;2351;50.812;12.872;2024-02-16T06:38:03;97796.34;;;5.25;100.00
5062;BME280;2351;50.812;12.872;2024-02-16T06:40:35;97795.75;;;5.34;100.00
5062;BME280;2351;50.812;12.872;2024-02-16T06:43:08;97794.28;;;5.43;100.00
5062;BME280;2351;50.812;12.872;2024-02-16T06:45:39;97783.25;;;5.51;100.00
5062;BME280;2351;50.812;12.872;2024-02-16T06:48:11;97781.91;;;5.58;100.00
5062;BME280;2351;50.812;12.872;2024-02-16T06:50:43;97781.78;;;5.72;100.00
5062;BME280;2351;50.812;12.872;2024-02-16T06:53:15;97780.09;;;5.84;100.00
5062;BME280;2351;50.812;12.872;2024-02-16T06:55:47;97780.81;;;5.99;100.00
5062;BME280;2351;50.812;12.872;2024-02-16T06:58:21;97779.16;;;6.11;100.00
5062;BME280;2351;50.812;12.872;2024-02-16T07:00:52;97774.81;;;6.23;100.00
5062;BME280;2351;50.812;12.872;2024-02-16T07:03:24;97776.56;;;6.36;100.00
5062;BME280;2351;50.812;12.872;2024-02-16T07:05:58;97783.47;;;6.74;100.00
5062;BME280;2351;50.812;12.872;2024-02-16T07:08:30;97792.19;;;6.99;100.00
5062;BME280;2351;50.812;12.872;2024-02-16T07:11:02;97797.22;;;7.02;100.00
5062;BME280;2351;50.812;12.872;2024-02-16T07:13:37;97793.88;;;7.00;100.00
5062;BME280;2351;50.812;12.872;2024-02-16T07:16:09;97792.47;;;7.07;100.00
5062;BME280;2351;50.812;12.872;2024-02-16T07:18:41;97789.16;;;7.16;100.00
5062;BME280;2351;50.812;12.872;2024-02-16T07:21:13;97785.94;;;7.24;100.00
5062;BME280;2351;50.812;12.872;2024-02-16T07:23:46;97786.19;;;7.32;100.00
5062;BME280;2351;50.812;12.872;2024-02-16T07:26:18;97782.97;;;7.40;100.00
5062;BME280;2351;50.812;12.872;2024-02-16T07:28:51;97785.28;;;7.56;100.00
5062;BME280;2351;50.812;12.872;2024-02-16T07:31:23;97779.13;;;7.91;100.00
5062;BME280;2351;50.812;12.872;2024-02-16T07:33:55;97779.34;;;8.89;100.00
5062;BME280;2351;50.812;12.872;2024-02-16T07:36:27;97769.47;;;9.45;100.00
5062;BME280;2351;50.812;12.872;2024-02-16T07:38:59;97776.50;;;9.34;100.00
5062;BME280;2351;50.812;12.872;2024-02-16T07:41:30;97774.09;;;9.10;100.00
5062;BME280;2351;50.812;12.872;2024-02-16T07:44:04;97768.53;;;8.92;100.00
5062;BME280;2351;50.812;12.872;2024-02-16T07:46:40;97775.13;;;8.86;100.00
5062;BME280;2351;50.812;12.872;2024-02-16T07:49:12;97779.09;;;8.92;100.00
5062;BME280;2351;50.812;12.872;2024-02-16T07:51:43;97780.00;;;9.02;100.00
5062;BME280;2351;50.812;12.872;2024-02-16T07:54:15;97787.09;;;9.23;100.00
5062;BME280;2351;50.812;12.872;2024-02-16T07:56:47;97777.50;;;9.64;100.00
5062;BME280;2351;50.812;12.872;2024-02-16T07:59:20;97782.81;;;9.95;100.00
5062;BME280;2351;50.812;12.872;2024-02-16T08:01:52;97778.25;;;9.98;100.00
5062;BME280;2351;50.812;12.872;2024-02-16T08:04:24;97786.25;;;10.17;100.00
5062;BME280;2351;50.812;12.872;2024-02-16T08:06:56;97779.81;;;10.10;100.00
5062;BME280;2351;50.812;12.872;2024-02-16T08:09:27;97781.47;;;10.11;100.00
5062;BME280;2351;50.812;12.872;2024-02-16T08:11:59;97780.06;;;10.07;100.00
5062;BME280;2351;50.812;12.872;2024-02-16T08:14:37;97783.00;;;10.04;100.00
5062;BME280;2351;50.812;12.872;2024-02-16T08:17:09;97784.81;;;10.03;100.00
5062;BME280;2351;50.812;12.872;2024-02-16T08:19:41;97774.38;;;10.02;100.00
5062;BME280;2351;50.812;12.872;2024-02-16T08:22:13;97783.38;;;9.99;100.00
5062;BME280;2351;50.812;12.872;2024-02-16T08:24:44;97774.19;;;9.93;100.00
5062;BME280;2351;50.812;12.872;2024-02-16T08:27:17;97778.13;;;10.09;100.00
5062;BME280;2351;50.812;12.872;2024-02-16T08:29:50;97777.91;;;10.53;100.00
5062;BME280;2351;50.812;12.872;2024-02-16T08:32:23;97774.75;;;10.89;100.00
5062;BME280;2351;50.812;12.872;2024-02-16T08:34:54;97779.34;;;10.96;100.00
5062;BME280;2351;50.812;12.872;2024-02-16T08:37:28;97779.47;;;11.05;100.00
5062;BME280;2351;50.812;12.872;2024-02-16T08:40:00;97785.63;;;11.15;100.00
5062;BME280;2351;50.812;12.872;2024-02-16T08:42:34;97776.53;;;11.47;100.00
5062;BME280;2351;50.812;12.872;2024-02-16T08:45:08;97760.63;;;11.95;100.00
5062;BME280;2351;50.812;12.872;2024-02-16T08:47:40;97765.16;;;12.22;100.00
5062;BME280;2351;50.812;12.872;2024-02-16T08:50:12;97760.56;;;12.42;100.00
5062;BME280;2351;50.812;12.872;2024-02-16T08:52:44;97769.22;;;12.16;100.00
5062;BME280;2351;50.812;12.872;2024-02-16T08:55:16;97762.69;;;12.39;100.00
5062;BME280;2351;50.812;12.872;2024-02-16T08:57:47;97758.78;;;12.61;100.00
5062;BME280;2351;50.812;12.872;2024-02-16T09:00:21;97772.84;;;12.71;100.00
5062;BME280;2351;50.812;12.872;2024-02-16T09:02:53;97766.25;;;12.93;100.00
5062;BME280;2351;50.812;12.872;2024-02-16T09:05:25;97770.50;;;13.04;100.00
5062;BME280;2351;50.812;12.872;2024-02-16T09:07:57;97774.28;;;13.02;100.00
5062;BME280;2351;50.812;12.872;2024-02-16T09:10:29;97770.13;;;12.99;100.00
5062;BME280;2351;50.812;12.872;2024-02-16T09:13:01;97764.34;;;12.86;100.00
5062;BME280;2351;50.812;12.872;2024-02-16T09:15:34;97766.78;;;12.79;100.00
5062;BME280;2351;50.812;12.872;2024-02-16T09:18:07;97760.38;;;12.72;100.00
5062;BME280;2351;50.812;12.872;2024-02-16T09:20:38;97771.16;;;12.70;100.00
5062;BME280;2351;50.812;12.872;2024-02-16T09:23:10;97764.19;;;12.69;100.00
5062;BME280;2351;50.812;12.872;2024-02-16T09:25:42;97762.34;;;12.70;100.00
5062;BME280;2351;50.812;12.872;2024-02-16T09:28:14;97772.84;;;12.71;100.00
5062;BME280;2351;50.812;12.872;2024-02-16T09:30:47;97776.56;;;12.78;100.00
5062;BME280;2351;50.812;12.872;2024-02-16T09:33:19;97779.22;;;12.78;100.00
5062;BME280;2351;50.812;12.872;2024-02-16T09:35:52;97780.56;;;12.83;100.00
5062;BME280;2351;50.812;12.872;2024-02-16T09:38:23;97780.84;;;12.89;100.00
5062;BME280;2351;50.812;12.872;2024-02-16T09:40:55;97785.22;;;12.99;100.00
5062;BME280;2351;50.812;12.872;2024-02-16T09:43:28;97793.88;;;13.01;99.05
5062;BME280;2351;50.812;12.872;2024-02-16T09:46:01;97788.72;;;13.17;99.79
5062;BME280;2351;50.812;12.872;2024-02-16T09:48:33;97780.06;;;13.78;100.00
5062;BME280;2351;50.812;12.872;2024-02-16T09:51:08;97779.56;;;14.52;100.00
5062;BME280;2351;50.812;12.872;2024-02-16T09:53:40;97777.72;;;15.03;100.00
5062;BME280;2351;50.812;12.872;2024-02-16T09:56:11;97781.38;;;14.94;88.45
5062;BME280;2351;50.812;12.872;2024-02-16T09:58:43;97782.81;;;14.29;70.77
5062;BME280;2351;50.812;12.872;2024-02-16T10:01:20;97772.16;;;14.21;76.79
5062;BME280;2351;50.812;12.872;2024-02-16T10:03:53;97782.00;;;14.28;78.10
5062;BME280;2351;50.812;12.872;2024-02-16T10:06:25;97781.31;;;13.92;65.53
5062;BME280;2351;50.812;12.872;2024-02-16T10:08:56;97784.81;;;13.66;66.69
5062;BME280;2351;50.812;12.872;2024-02-16T10:11:28;97780.16;;;13.68;67.78
5062;BME280;2351;50.812;12.872;2024-02-16T10:14:02;97780.47;;;13.65;66.05
5062;BME280;2351;50.812;12.872;2024-02-16T10:16:35;97781.94;;;13.59;67.44
5062;BME280;2351;50.812;12.872;2024-02-16T10:19:08;97781.09;;;13.59;67.65
5062;BME280;2351;50.812;12.872;2024-02-16T10:21:40;97778.50;;;13.67;68.91
5062;BME280;2351;50.812;12.872;2024-02-16T10:24:13;97781.63;;;13.89;70.02
5062;BME280;2351;50.812;12.872;2024-02-16T10:26:45;97778.78;;;14.16;70.57
5062;BME280;2351;50.812;12.872;2024-02-16T10:29:18;97774.94;;;14.54;70.96
5062;BME280;2351;50.812;12.872;2024-02-16T10:31:52;97779.19;;;14.81;70.42
5062;BME280;2351;50.812;12.872;2024-02-16T10:34:33;97776.09;;;15.11;70.55
5062;BME280;2351;50.812;12.872;2024-02-16T10:37:06;97774.41;;;15.43;70.19
5062;BME280;2351;50.812;12.872;2024-02-16T10:39:40;97772.06;;;15.64;67.81
5062;BME280;2351;50.812;12.872;2024-02-16T10:42:13;97760.34;;;15.82;68.29
5062;BME280;2351;50.812;12.872;2024-02-16T10:44:46;97756.97;;;16.05;67.42
5062;BME280;2351;50.812;12.872;2024-02-16T10:47:19;97755.41;;;16.27;67.49
5062;BME280;2351;50.812;12.872;2024-02-16T10:49:51;97755.97;;;16.54;67.31
5062;BME280;2351;50.812;12.872;2024-02-16T10:52:23;97746.84;;;16.71;65.72
5062;BME280;2351;50.812;12.872;2024-02-16T10:54:57;97749.34;;;16.73;64.36
5062;BME280;2351;50.812;12.872;2024-02-16T10:57:29;97749.66;;;16.78;63.29
5062;BME280;2351;50.812;12.872;2024-02-16T11:00:08;97743.31;;;16.71;60.48
5062;BME280;2351;50.812;12.872;2024-02-16T11:02:54;97747.41;;;16.59;59.64
5062;BME280;2351;50.812;12.872;2024-02-16T11:05:33;97753.09;;;16.55;59.17
5062;BME280;2351;50.812;12.872;2024-02-16T11:08:12;97741.44;;;16.48;58.44
5062;BME280;2351;50.812;12.872;2024-02-16T11:10:54;97739.63;;;16.49;58.01
5062;BME280;2351;50.812;12.872;2024-02-16T11:13:27;97738.66;;;16.41;57.79
5062;BME280;2351;50.812;12.872;2024-02-16T11:16:12;97735.16;;;16.41;57.50
5062;BME280;2351;50.812;12.872;2024-02-16T11:18:46;97730.47;;;16.43;57.40
5062;BME280;2351;50.812;12.872;2024-02-16T11:21:19;97729.59;;;16.51;58.10
5062;BME280;2351;50.812;12.872;2024-02-16T11:23:51;97727.53;;;16.61;58.02
5062;BME280;2351;50.812;12.872;2024-02-16T11:26:22;97731.28;;;16.75;59.02
5062;BME280;2351;50.812;12.872;2024-02-16T11:28:54;97727.78;;;17.06;59.06
5062;BME280;2351;50.812;12.872;2024-02-16T11:31:26;97725.34;;;17.35;58.09
5062;BME280;2351;50.812;12.872;2024-02-16T11:34:00;97731.78;;;17.64;56.03
5062;BME280;2351;50.812;12.872;2024-02-16T11:36:31;97728.09;;;17.95;54.34
5062;BME280;2351;50.812;12.872;2024-02-16T11:39:12;97721.09;;;18.09;50.04
5062;BME280;2351;50.812;12.872;2024-02-16T11:41:46;97724.06;;;17.99;48.23
5062;BME280;2351;50.812;12.872;2024-02-16T11:44:18;97708.72;;;18.08;47.58
5062;BME280;2351;50.812;12.872;2024-02-16T11:46:53;97708.00;;;18.14;47.10
5062;BME280;2351;50.812;12.872;2024-02-16T11:49:27;97713.44;;;18.20;46.64
5062;BME280;2351;50.812;12.872;2024-02-16T11:51:59;97712.56;;;18.35;46.79
5062;BME280;2351;50.812;12.872;2024-02-16T11:54:31;97705.03;;;18.60;46.85
5062;BME280;2351;50.812;12.872;2024-02-16T11:57:03;97705.81;;;18.76;45.86
5062;BME280;2351;50.812;12.872;2024-02-16T11:59:36;97719.91;;;18.85;45.77
5062;BME280;2351;50.812;12.872;2024-02-16T12:02:16;97715.63;;;18.90;44.26
5062;BME280;2351;50.812;12.872;2024-02-16T12:04:59;97720.22;;;18.75;43.87
5062;BME280;2351;50.812;12.872;2024-02-16T12:07:31;97717.28;;;18.70;43.84
5062;BME280;2351;50.812;12.872;2024-02-16T12:10:03;97714.50;;;18.78;44.19
5062;BME280;2351;50.812;12.872;2024-02-16T12:12:37;97714.38;;;18.86;43.37
5062;BME280;2351;50.812;12.872;2024-02-16T12:15:10;97714.50;;;18.78;42.51
5062;BME280;2351;50.812;12.872;2024-02-16T12:17:43;97710.25;;;18.69;42.63
5062;BME280;2351;50.812;12.872;2024-02-16T12:20:17;97712.72;;;18.63;42.48
5062;BME280;2351;50.812;12.872;2024-02-16T12:22:49;97710.84;;;18.64;43.19
5062;BME280;2351;50.812;12.872;2024-02-16T12:25:21;97710.72;;;18.72;42.55
5062;BME280;2351;50.812;12.872;2024-02-16T12:27:52;97718.94;;;18.71;42.62
5062;BME280;2351;50.812;12.872;2024-02-16T12:30:24;97714.22;;;18.73;42.62
5062;BME280;2351;50.812;12.872;2024-02-16T12:32:56;97714.59;;;18.70;42.92
5062;BME280;2351;50.812;12.872;2024-02-16T12:35:29;97716.63;;;18.67;43.14
5062;BME280;2351;50.812;12.872;2024-02-16T12:38:01;97727.88;;;18.56;42.86
5062;BME280;2351;50.812;12.872;2024-02-16T12:40:33;97715.41;;;18.48;42.83
5062;BME280;2351;50.812;12.872;2024-02-16T12:43:05;97723.38;;;18.42;43.13
5062;BME280;2351;50.812;12.872;2024-02-16T12:45:39;97721.44;;;18.35;43.28
5062;BME280;2351;50.812;12.872;2024-02-16T12:48:10;97724.88;;;18.29;43.66
5062;BME280;2351;50.812;12.872;2024-02-16T12:50:48;97731.25;;;18.28;43.88
5062;BME280;2351;50.812;12.872;2024-02-16T12:53:22;97721.75;;;18.26;44.14
5062;BME280;2351;50.812;12.872;2024-02-16T12:55:55;97732.63;;;18.24;44.16
5062;BME280;2351;50.812;12.872;2024-02-16T12:58:26;97725.44;;;18.25;43.99
5062;BME280;2351;50.812;12.872;2024-02-16T13:01:00;97723.41;;;18.27;43.81
5062;BME280;2351;50.812;12.872;2024-02-16T13:03:33;97722.47;;;18.34;44.40
5062;BME280;2351;50.812;12.872;2024-02-16T13:06:15;97722.25;;;18.51;44.32
5062;BME280;2351;50.812;12.872;2024-02-16T13:08:47;97723.22;;;18.65;44.31
5062;BME280;2351;50.812;12.872;2024-02-16T13:11:19;97729.88;;;18.69;43.49
5062;BME280;2351;50.812;12.872;2024-02-16T13:13:51;97727.19;;;18.69;42.87
5062;BME280;2351;50.812;12.872;2024-02-16T13:16:22;97726.47;;;18.60;42.17
5062;BME280;2351;50.812;12.872;2024-02-16T13:18:54;97727.88;;;18.56;41.90
5062;BME280;2351;50.812;12.872;2024-02-16T13:21:38;97728.63;;;18.50;41.61
5062;BME280;2351;50.812;12.872;2024-02-16T13:24:09;97729.66;;;18.34;40.42
5062;BME280;2351;50.812;12.872;2024-02-16T13:26:41;97728.28;;;18.23;40.69
5062;BME280;2351;50.812;12.872;2024-02-16T13:29:13;97725.06;;;18.13;40.19
5062;BME280;2351;50.812;12.872;2024-02-16T13:31:45;97733.03;;;18.06;40.81
5062;BME280;2351;50.812;12.872;2024-02-16T13:34:17;97725.38;;;18.03;41.08
5062;BME280;2351;50.812;12.872;2024-02-16T13:36:50;97732.25;;;17.97;41.18
5062;BME280;2351;50.812;12.872;2024-02-16T13:39:21;97729.66;;;17.89;41.53